Time;durP1;ratioP1;P1;durP2;ratioP2;P2;SDS_P1;SDS_P2;PMS_P1;PMS_P2;Temp;Humidity;BMP_temperature;BMP_pressure;BME280_temperature;BME280_humidity;BME280_pressure;Samples;Min_cycle;Max_cycle;Signal;HPM_P1;HPM_P2
2023/03/14 00:00:48;;;;;;;1999.90;999.90;;;12.90;99.90;;;;;;4963240;28;20046;-87
2023/03/14 00:03:14;;;;;;;1999.90;999.90;;;12.90;99.90;;;;;;4970791;28;20050;-89
2023/03/14 00:05:39;;;;;;;1999.90;999.90;;;13.10;99.90;;;;;;4994619;28;20035;-87
2023/03/14 00:08:05;;;;;;;1999.90;999.90;;;13.10;99.90;;;;;;4995243;28;20039;-87
2023/03/14 00:10:31;;;;;;;1714.57;767.10;;;13.30;99.90;;;;;;4992428;28;20062;-86
2023/03/14 00:12:56;;;;;;;1999.90;999.90;;;13.30;99.90;;;;;;4994957;28;20054;-85
2023/03/14 00:15:22;;;;;;;1999.90;999.90;;;13.20;99.90;;;;;;4992729;28;20038;-88
2023/03/14 00:17:48;;;;;;;1999.90;999.90;;;13.20;99.90;;;;;;4983661;28;20517;-85
2023/03/14 00:20:14;;;;;;;1999.90;999.90;;;13.40;99.90;;;;;;4990579;28;20046;-90
2023/03/14 00:22:41;;;;;;;1999.90;999.90;;;13.40;99.90;;;;;;4989350;28;20039;-86
2023/03/14 00:25:09;;;;;;;1280.35;519.95;;;13.40;99.90;;;;;;4987193;28;20050;-85
2023/03/14 00:27:34;;;;;;;1999.90;999.90;;;14.00;99.90;;;;;;4986871;28;20481;-87
2023/03/14 00:30:00;;;;;;;1999.90;999.90;;;13.50;99.90;;;;;;4970910;28;20069;-88
2023/03/14 00:32:26;;;;;;;1999.90;999.90;;;13.40;99.90;;;;;;4993468;28;20042;-85
2023/03/14 00:34:52;;;;;;;1999.90;999.90;;;13.60;99.90;;;;;;4981972;28;20093;-90
2023/03/14 00:37:17;;;;;;;1999.90;581.55;;;13.60;99.90;;;;;;4971029;28;20049;-87
2023/03/14 00:39:43;;;;;;;1999.90;999.90;;;13.50;99.90;;;;;;4989913;28;20054;-87
2023/03/14 00:42:09;;;;;;;1999.90;999.90;;;13.70;99.90;;;;;;4976378;28;20042;-86
2023/03/14 00:44:35;;;;;;;1999.90;999.90;;;13.60;99.90;;;;;;4991042;28;20042;-87
2023/03/14 00:47:00;;;;;;;1999.90;999.90;;;13.70;99.90;;;;;;4988705;28;20050;-85
2023/03/14 00:49:26;;;;;;;1999.90;999.90;;;13.70;99.90;;;;;;4988416;28;20047;-86
2023/03/14 00:51:52;;;;;;;1999.90;999.90;;;13.70;99.90;;;;;;4983538;28;20054;-86
2023/03/14 00:54:19;;;;;;;1999.90;999.90;;;13.50;99.90;;;;;;4987866;28;20050;-86
2023/03/14 00:56:45;;;;;;;1999.90;999.90;;;13.60;99.90;;;;;;4987994;28;20050;-88
2023/03/14 00:59:10;;;;;;;1999.90;999.90;;;13.50;99.90;;;;;;4988513;28;20053;-85
2023/03/14 01:01:38;;;;;;;1999.90;999.90;;;13.50;99.90;;;;;;4991030;28;20669;-86
2023/03/14 01:04:03;;;;;;;1999.90;999.90;;;13.50;99.90;;;;;;4994549;28;20050;-86
2023/03/14 01:06:30;;;;;;;1999.90;999.90;;;13.60;99.90;;;;;;4989163;28;20116;-86
2023/03/14 01:08:56;;;;;;;1999.90;999.90;;;13.50;99.90;;;;;;4984341;28;20127;-86
2023/03/14 01:11:31;;;;;;;1999.90;999.90;;;13.50;99.90;;;;;;4985759;28;20554;-86
2023/03/14 01:13:57;;;;;;;1999.90;999.90;;;13.50;99.90;;;;;;4987765;28;20124;-88
2023/03/14 01:16:24;;;;;;;1999.90;999.90;;;13.50;99.90;;;;;;4987331;28;20042;-85
2023/03/14 01:18:50;;;;;;;1999.90;999.90;;;13.60;99.90;;;;;;4989914;28;20065;-86
2023/03/14 01:21:29;;;;;;;1999.90;999.90;;;13.40;99.90;;;;;;4984421;28;20156;-85
2023/03/14 01:23:56;;;;;;;1999.90;999.90;;;13.70;99.90;;;;;;4979210;28;20100;-86
2023/03/14 01:26:24;;;;;;;1999.90;999.90;;;13.50;99.90;;;;;;4980900;28;20736;-87
2023/03/14 01:28:52;;;;;;;1999.90;999.90;;;13.40;99.90;;;;;;4981676;28;20053;-86
2023/03/14 01:31:18;;;;;;;1999.90;999.90;;;13.50;99.90;;;;;;4982894;28;20070;-86
2023/03/14 01:33:44;;;;;;;1999.90;999.90;;;13.70;99.90;;;;;;4980198;28;20069;-92
2023/03/14 01:36:11;;;;;;;1999.90;999.90;;;13.60;99.90;;;;;;4979972;28;20385;-86
2023/03/14 01:38:39;;;;;;;1678.97;758.92;;;13.60;99.90;;;;;;4982897;28;20042;-88
2023/03/14 01:41:06;;;;;;;;;;;13.60;99.90;;;;;;4984095;28;20047;-87
2023/03/14 01:43:31;;;;;;;1999.90;999.90;;;13.50;99.90;;;;;;4965534;28;19926;-87
2023/03/14 01:46:06;;;;;;;1999.90;999.90;;;13.70;99.90;;;;;;4985871;28;20046;-89
2023/03/14 01:48:38;;;;;;;1999.90;999.90;;;13.60;99.90;;;;;;4982291;28;20050;-88
2023/03/14 01:51:11;;;;;;;1999.90;823.90;;;13.60;99.90;;;;;;4989648;28;20043;-87
2023/03/14 01:53:39;;;;;;;1999.90;999.90;;;13.50;99.90;;;;;;4986897;28;20062;-87
2023/03/14 01:56:07;;;;;;;1999.90;999.90;;;13.60;99.90;;;;;;4988808;28;20057;-86
2023/03/14 01:58:36;;;;;;;1999.90;999.90;;;13.60;99.90;;;;;;4989225;28;20077;-86
2023/03/14 02:01:03;;;;;;;1999.90;999.90;;;13.50;99.90;;;;;;4983186;28;20097;-86
2023/03/14 02:03:35;;;;;;;1999.90;999.90;;;13.50;99.90;;;;;;4964841;28;20058;-89
2023/03/14 02:06:06;;;;;;;1999.90;999.90;;;13.40;99.90;;;;;;4983754;28;20507;-91
2023/03/14 02:08:35;;;;;;;1999.90;999.90;;;13.30;1.00;;;;;;4989780;28;20561;-89
2023/03/14 02:11:00;;;;;;;1999.90;999.90;;;13.40;99.90;;;;;;4984334;28;20053;-86
2023/03/14 02:13:26;;;;;;;1654.68;754.83;;;13.30;99.90;;;;;;4995681;28;20046;-87
2023/03/14 02:15:52;;;;;;;1899.25;570.30;;;13.30;99.90;;;;;;4997309;28;20054;-87
2023/03/14 02:18:19;;;;;;;1999.90;999.90;;;13.40;99.90;;;;;;4986916;28;20466;-85
2023/03/14 02:20:55;;;;;;;1999.90;999.90;;;13.40;99.90;;;;;;4988638;28;20084;-87
2023/03/14 02:23:51;;;;;;;1999.90;999.90;;;13.40;1.00;;;;;;4984612;28;20058;-88
2023/03/14 02:26:47;;;;;;;1999.90;999.90;;;13.50;99.90;;;;;;4982547;28;20058;-86
2023/03/14 02:29:13;;;;;;;1999.70;89.10;;;13.40;99.90;;;;;;4977685;28;20148;-86
2023/03/14 02:31:39;;;;;;;1999.90;999.90;;;13.50;99.90;;;;;;4982675;28;20149;-86
2023/03/14 02:34:05;;;;;;;1999.90;999.90;;;13.40;1.00;;;;;;4984028;28;20038;-87
2023/03/14 02:36:32;;;;;;;1999.90;999.90;;;13.50;99.90;;;;;;4982937;28;20053;-90
2023/03/14 02:39:14;;;;;;;1999.90;999.90;;;13.40;99.90;;;;;;4969623;28;20049;-87
2023/03/14 02:41:39;;;;;;;1999.90;999.90;;;13.30;1.00;;;;;;4983301;28;20042;-85
2023/03/14 02:44:05;;;;;;;1704.03;766.58;;;13.40;99.90;;;;;;4988547;28;20498;-86
2023/03/14 02:46:31;;;;;;;1227.05;506.23;;;13.30;1.00;;;;;;4983048;28;20156;-87
2023/03/14 02:49:07;;;;;;;1999.90;999.90;;;13.40;99.90;;;;;;4984695;28;20046;-87
2023/03/14 02:51:35;;;;;;;1999.90;999.90;;;13.30;99.90;;;;;;4992970;28;20076;-89
2023/03/14 02:54:00;;;;;;;1999.90;999.90;;;13.30;99.90;;;;;;4983188;28;20062;-87
2023/03/14 02:56:26;;;;;;;1999.90;999.90;;;13.30;99.90;;;;;;4988842;28;20069;-86
2023/03/14 02:58:52;;;;;;;1999.90;999.90;;;13.30;99.90;;;;;;4987793;28;20139;-90
2023/03/14 03:01:18;;;;;;;1999.90;999.90;;;13.30;65.30;;;;;;4994828;28;20380;-86
2023/03/14 03:03:43;;;;;;;1999.90;999.90;;;13.30;99.90;;;;;;4989593;28;20053;-88
2023/03/14 03:06:09;;;;;;;1999.90;999.90;;;13.30;99.90;;;;;;4984971;28;20047;-86
2023/03/14 03:08:35;;;;;;;1999.90;999.90;;;13.20;1.00;;;;;;4987322;28;20038;-88
2023/03/14 03:11:00;;;;;;;1999.90;778.58;;;13.10;99.90;;;;;;4989090;28;20042;-90
2023/03/14 03:13:26;;;;;;;1999.90;192.32;;;13.00;95.60;;;;;;4983616;28;20046;-88
2023/03/14 03:15:55;;;;;;;1999.90;999.90;;;12.90;1.00;;;;;;4986561;28;20038;-86
2023/03/14 03:18:22;;;;;;;1999.90;614.08;;;12.90;1.00;;;;;;4985918;28;20181;-85
2023/03/14 03:20:47;;;;;;;1999.90;999.90;;;13.50;99.90;;;;;;4986166;28;20468;-87
2023/03/14 03:23:13;;;;;;;1999.90;999.90;;;12.70;99.90;;;;;;4985435;28;20498;-90
2023/03/14 03:25:39;;;;;;;1999.90;999.90;;;12.80;99.90;;;;;;4989589;28;20470;-85
2023/03/14 03:28:07;;;;;;;1999.90;688.60;;;13.10;1.00;;;;;;4984338;28;20399;-88
2023/03/14 03:30:37;;;;;;;1999.90;999.90;;;12.70;99.90;;;;;;4992782;28;20043;-86
2023/03/14 03:33:02;;;;;;;1999.90;777.70;;;12.70;1.00;;;;;;4991058;28;20058;-89
2023/03/14 03:35:28;;;;;;;1999.90;431.35;;;12.60;1.00;;;;;;4992391;28;20046;-85
2023/03/14 03:37:54;;;;;;;1999.90;193.40;;;12.60;86.50;;;;;;4969864;28;20057;-86
2023/03/14 03:40:20;;;;;;;1999.90;999.90;;;12.60;99.90;;;;;;4964559;28;20049;-91
2023/03/14 03:42:45;;;;;;;1999.90;999.90;;;12.60;99.90;;;;;;4992967;28;20045;-86
2023/03/14 03:45:11;;;;;;;1999.90;386.75;;;12.60;1.00;;;;;;4987222;28;20468;-88
2023/03/14 03:47:36;;;;;;;1999.90;588.10;;;12.70;1.00;;;;;;4987443;28;20046;-85
2023/03/14 03:50:02;;;;;;;1999.90;807.28;;;12.50;1.00;;;;;;4985635;28;20383;-87
2023/03/14 03:52:28;;;;;;;1999.90;999.90;;;12.80;1.00;;;;;;4987364;28;20054;-87
2023/03/14 03:54:54;;;;;;;1999.90;999.90;;;12.40;99.90;;;;;;4972615;28;20054;-87
2023/03/14 03:57:20;;;;;;;1999.90;999.90;;;12.40;1.00;;;;;;4986279;28;20042;-86
2023/03/14 03:59:46;;;;;;;1999.90;999.90;;;12.40;1.00;;;;;;4987872;28;20050;-87
2023/03/14 04:02:11;;;;;;;1999.90;999.90;;;12.40;1.00;;;;;;4985936;28;20495;-86
2023/03/14 04:04:38;;;;;;;1793.35;774.72;;;12.30;1.00;;;;;;4992651;28;20062;-86
2023/03/14 04:07:04;;;;;;;1999.90;393.23;;;12.30;1.00;;;;;;4994817;28;20073;-86
2023/03/14 04:09:30;;;;;;;1999.90;800.00;;;12.40;38.90;;;;;;4994551;28;20046;-85
2023/03/14 04:11:56;;;;;;;1999.90;999.90;;;12.30;99.90;;;;;;4993972;28;20049;-86
2023/03/14 04:14:22;;;;;;;1999.90;822.00;;;12.30;99.90;;;;;;4987956;28;20046;-87
2023/03/14 04:16:48;;;;;;;1999.90;814.13;;;12.80;99.90;;;;;;4985075;28;20035;-88
2023/03/14 04:19:13;;;;;;;1999.90;486.17;;;12.20;1.00;;;;;;4986078;28;20046;-89
2023/03/14 04:21:46;;;;;;;1990.40;786.35;;;12.20;1.00;;;;;;4969328;28;20046;-90
2023/03/14 04:24:12;;;;;;;1999.90;999.90;;;12.30;1.00;;;;;;4982016;28;20546;-90
2023/03/14 04:26:38;;;;;;;1999.90;550.70;;;12.30;1.00;;;;;;4984979;28;20038;-91
2023/03/14 04:29:04;;;;;;;1999.90;617.70;;;12.30;99.90;;;;;;4980396;28;20042;-87
2023/03/14 04:31:30;;;;;;;1999.90;693.60;;;12.20;99.90;;;;;;4984982;28;20042;-87
2023/03/14 04:33:56;;;;;;;1999.90;387.33;;;12.40;99.90;;;;;;4983307;28;20171;-87
2023/03/14 04:36:22;;;;;;;1999.90;549.95;;;12.30;99.90;;;;;;4989759;28;20047;-87
2023/03/14 04:38:51;;;;;;;1999.90;803.58;;;12.40;99.90;;;;;;4987640;28;20038;-87
2023/03/14 04:41:16;;;;;;;1999.90;888.72;;;12.60;99.90;;;;;;4984716;28;20034;-87
2023/03/14 04:43:42;;;;;;;1999.90;319.70;;;12.50;99.90;;;;;;4997457;28;20050;-86
2023/03/14 04:46:08;;;;;;;1999.90;771.70;;;12.40;99.90;;;;;;4976600;28;20054;-89
2023/03/14 04:48:33;;;;;;;1999.90;711.67;;;12.10;99.90;;;;;;4985904;28;20046;-87
2023/03/14 04:50:59;;;;;;;1999.90;729.55;;;12.00;99.90;;;;;;4989878;28;20042;-87
2023/03/14 04:53:25;;;;;;;1999.90;999.90;;;12.20;99.90;;;;;;4988359;28;20046;-87
2023/03/14 04:55:53;;;;;;;1999.90;709.75;;;12.40;99.90;;;;;;4984137;28;20062;-87
2023/03/14 04:58:19;;;;;;;1999.90;260.17;;;12.40;99.90;;;;;;4965870;28;20075;-88
2023/03/14 05:00:45;;;;;;;1999.90;561.83;;;12.60;99.90;;;;;;4998773;28;20038;-90
2023/03/14 05:03:11;;;;;;;1999.90;590.55;;;11.70;99.90;;;;;;5002189;28;20049;-87
2023/03/14 05:05:36;;;;;;;1999.90;634.33;;;12.00;98.10;;;;;;4991457;28;20050;-87
2023/03/14 05:08:02;;;;;;;1999.90;687.67;;;12.00;1.00;;;;;;4988335;28;20073;-88
2023/03/14 05:10:28;;;;;;;1999.90;999.90;;;;;;;;;;4982916;28;20090;-87
2023/03/14 05:12:54;;;;;;;1999.90;612.92;;;12.20;1.00;;;;;;4980589;28;20046;-87
2023/03/14 05:15:20;;;;;;;1999.90;612.05;;;11.80;1.00;;;;;;4984333;28;20069;-87
2023/03/14 05:17:46;;;;;;;1999.90;279.25;;;12.30;99.90;;;;;;4986714;28;20053;-88
2023/03/14 05:20:12;;;;;;;1999.90;895.20;;;;;;;;;;4982385;28;20194;-90
2023/03/14 05:22:39;;;;;;;1999.90;699.42;;;12.20;99.90;;;;;;4985064;28;20038;-85
2023/03/14 05:25:05;;;;;;;1999.90;655.42;;;12.50;99.90;;;;;;4989767;28;20042;-85
2023/03/14 05:27:31;;;;;;;1999.90;457.88;;;12.10;30.70;;;;;;4987268;28;20058;-87
2023/03/14 05:29:57;;;;;;;1999.90;999.90;;;12.50;1.00;;;;;;4986416;28;20050;-84
2023/03/14 05:32:29;;;;;;;1999.90;463.73;;;11.60;99.90;;;;;;5109051;27;20468;-88
2023/03/14 05:34:58;;;;;;;1999.90;517.55;;;12.90;99.90;;;;;;5112404;28;20044;-86
2023/03/14 05:37:25;;;;;;;1999.90;853.97;;;13.90;99.90;;;;;;5094257;28;20071;-90
2023/03/14 05:39:50;;;;;;;1999.90;684.03;;;14.10;99.90;;;;;;5104500;28;20058;-90
2023/03/14 05:42:16;;;;;;;1999.90;999.90;;;12.20;99.90;;;;;;5108151;28;20118;-92
2023/03/14 05:44:42;;;;;;;1760.47;769.28;;;12.10;99.90;;;;;;5096445;28;20519;-89
2023/03/14 05:47:07;;;;;;;1999.90;999.90;;;14.70;99.90;;;;;;5080156;28;20056;-88
2023/03/14 05:49:33;;;;;;;1691.70;765.00;;;13.80;99.90;;;;;;5109178;28;20032;-87
2023/03/14 05:51:59;;;;;;;1999.90;999.90;;;14.00;99.90;;;;;;5083549;28;20121;-89
2023/03/14 05:54:24;;;;;;;1999.90;999.90;;;12.70;99.90;;;;;;5095993;28;20048;-84
2023/03/14 05:56:50;;;;;;;1999.90;999.90;;;13.10;99.90;;;;;;5104930;28;20047;-84
2023/03/14 05:59:16;;;;;;;1712.60;764.00;;;14.00;99.90;;;;;;5073873;28;20135;-85
2023/03/14 06:01:41;;;;;;;1999.90;999.90;;;13.90;99.90;;;;;;5100607;28;20040;-86
2023/03/14 06:04:07;;;;;;;1999.90;999.90;;;13.30;99.90;;;;;;5076827;28;20544;-87
2023/03/14 06:06:33;;;;;;;990.25;308.60;;;13.00;99.90;;;;;;5107980;28;20048;-87
2023/03/14 06:08:58;;;;;;;1999.90;999.90;;;13.00;99.90;;;;;;5083517;28;20054;-87
2023/03/14 06:11:24;;;;;;;1904.38;775.20;;;13.80;99.90;;;;;;5063124;28;20119;-87
2023/03/14 06:13:51;;;;;;;1952.10;374.55;;;13.40;99.90;;;;;;5082415;28;20047;-89
2023/03/14 06:16:16;;;;;;;1570.18;534.42;;;12.90;99.90;;;;;;5074272;28;20056;-89
2023/03/14 06:18:42;;;;;;;1302.63;519.47;;;15.00;99.90;;;;;;5115632;28;20043;-89
2023/03/14 06:21:08;;;;;;;676.88;80.63;;;14.00;99.90;;;;;;5089597;28;20083;-90
2023/03/14 06:23:34;;;;;;;1999.90;999.90;;;12.30;99.90;;;;;;5089596;28;20044;-89
2023/03/14 06:26:00;;;;;;;1999.90;999.90;;;14.50;99.90;;;;;;5093285;28;20056;-89
2023/03/14 06:28:26;;;;;;;1999.90;999.90;;;13.80;99.90;;;;;;5093749;28;20058;-91
2023/03/14 06:30:52;;;;;;;488.25;48.95;;;13.40;99.90;;;;;;5107183;28;20142;-91
2023/03/14 06:33:17;;;;;;;1999.90;999.90;;;12.90;99.90;;;;;;5093503;28;20146;-89
2023/03/14 06:35:44;;;;;;;1842.93;550.65;;;14.20;99.90;;;;;;5069735;28;20077;-89
2023/03/14 06:38:10;;;;;;;1999.90;999.90;;;12.70;99.90;;;;;;5106483;28;20040;-90
2023/03/14 06:40:36;;;;;;;1999.90;999.90;;;;;;;;;;5109599;28;20036;-93
2023/03/14 06:43:01;;;;;;;1999.90;999.90;;;14.00;99.90;;;;;;5084023;28;20044;-90
2023/03/14 06:45:27;;;;;;;1999.90;999.90;;;;;;;;;;5096190;28;20052;-90
2023/03/14 06:47:53;;;;;;;1999.90;999.90;;;12.80;99.90;;;;;;5095726;28;20047;-90
2023/03/14 06:50:19;;;;;;;1999.90;999.90;;;12.40;99.90;;;;;;5096465;28;20040;-90
2023/03/14 06:52:47;;;;;;;1999.90;999.90;;;13.80;99.90;;;;;;5097544;28;20048;-90
2023/03/14 06:55:14;;;;;;;1781.30;790.83;;;13.40;99.90;;;;;;5061188;28;20047;-91
2023/03/14 06:57:41;;;;;;;1401.35;534.20;;;12.80;99.90;;;;;;5068798;28;20084;-88
2023/03/14 07:00:08;;;;;;;1999.90;999.90;;;12.60;99.90;;;;;;5075616;28;20052;-91
2023/03/14 07:02:34;;;;;;;1999.90;999.90;;;13.70;99.90;;;;;;5075107;28;20056;-89
2023/03/14 07:05:00;;;;;;;1999.90;999.90;;;13.20;99.90;;;;;;5074856;28;20104;-88
2023/03/14 07:07:27;;;;;;;1999.90;999.90;;;12.80;99.90;;;;;;5077151;28;20097;-89
2023/03/14 07:09:53;;;;;;;1999.90;999.90;;;12.20;99.90;;;;;;5059615;28;20060;-90
2023/03/14 07:12:19;;;;;;;1999.90;999.90;;;13.90;99.90;;;;;;5076212;28;20073;-90
2023/03/14 07:14:44;;;;;;;1365.90;534.72;;;10.50;99.90;;;;;;5094818;28;20044;-89
2023/03/14 07:17:10;;;;;;;1999.90;999.90;;;11.50;99.90;;;;;;5060379;28;20130;-89
2023/03/14 07:19:37;;;;;;;1999.90;999.90;;;11.20;99.90;;;;;;5057626;28;20128;-89
2023/03/14 07:22:03;;;;;;;1999.90;999.90;;;;;;;;;;5057050;28;20049;-87
2023/03/14 07:24:29;;;;;;;1999.90;999.90;;;;;;;;;;5038627;28;20393;-87
2023/03/14 07:26:55;;;;;;;1999.90;999.90;;;10.90;99.90;;;;;;5057863;28;20036;-88
2023/03/14 07:29:21;;;;;;;1650.20;568.00;;;10.70;99.90;;;;;;5063414;28;20051;-88
2023/03/14 07:31:47;;;;;;;1966.38;793.08;;;10.00;99.90;;;;;;5088410;28;20506;-88
2023/03/14 07:34:12;;;;;;;1999.90;708.13;;;12.70;99.90;;;;;;5074249;28;20064;-88
2023/03/14 07:36:38;;;;;;;1999.90;999.90;;;10.30;99.90;;;;;;5072696;28;20056;-88
2023/03/14 07:39:04;;;;;;;1999.90;401.88;;;;;;;;;;5073184;28;20047;-86
2023/03/14 07:41:30;;;;;;;1999.90;380.75;;;10.40;99.90;;;;;;5055924;28;20487;-87
2023/03/14 07:43:56;;;;;;;1999.90;753.03;;;12.20;99.90;;;;;;5056479;28;20058;-87
2023/03/14 07:46:22;;;;;;;1999.90;498.73;;;9.10;99.90;;;;;;5055921;28;20401;-88
2023/03/14 07:48:48;;;;;;;1999.90;862.38;;;;;;;;;;5073895;28;20080;-87
2023/03/14 07:51:14;;;;;;;1999.90;453.17;;;;;;;;;;5056898;28;20053;-88
2023/03/14 07:53:40;;;;;;;1999.90;548.97;;;10.10;99.90;;;;;;5072417;28;20044;-88
2023/03/14 07:56:06;;;;;;;1999.90;816.95;;;10.30;99.90;;;;;;5094284;28;20081;-87
2023/03/14 07:58:32;;;;;;;1999.90;765.55;;;9.30;99.90;;;;;;5075492;28;20052;-88
2023/03/14 08:00:59;;;;;;;1999.90;687.03;;;9.50;99.90;;;;;;5100764;28;20488;-87
2023/03/14 08:03:25;;;;;;;1999.90;809.50;;;11.00;99.90;;;;;;5098084;28;20040;-87
2023/03/14 08:05:51;;;;;;;1999.90;999.90;;;9.40;99.90;;;;;;5094949;28;20630;-87
2023/03/14 08:08:18;;;;;;;1999.90;999.90;;;9.40;99.90;;;;;;5092029;28;20040;-87
2023/03/14 08:10:44;;;;;;;1999.90;889.10;;;;;;;;;;5058130;28;20051;-87
2023/03/14 08:13:10;;;;;;;1999.90;795.40;;;9.60;99.90;;;;;;5059583;28;20044;-87
2023/03/14 08:15:36;;;;;;;1999.90;796.53;;;;;;;;;;5093761;28;20131;-87
2023/03/14 08:18:03;;;;;;;1999.90;743.95;;;9.70;99.90;;;;;;5094301;28;20442;-87
2023/03/14 08:20:29;;;;;;;1999.90;905.60;;;9.20;99.90;;;;;;5061082;28;20110;-87
2023/03/14 08:23:01;;;;;;;1999.90;864.25;;;9.60;99.90;;;;;;5073526;28;20221;-87
2023/03/14 08:25:28;;;;;;;1999.90;999.90;;;8.50;99.90;;;;;;5071943;28;20516;-87
2023/03/14 08:27:56;;;;;;;1999.90;612.97;;;9.70;99.90;;;;;;5073289;28;20510;-87
2023/03/14 08:30:22;;;;;;;1999.90;999.90;;;;;;;;;;5079657;28;20070;-88
2023/03/14 08:32:48;;;;;;;1999.90;999.90;;;9.60;99.90;;;;;;5075647;28;20048;-87
2023/03/14 08:35:15;;;;;;;1999.90;328.27;;;11.80;99.90;;;;;;5058631;28;20491;-87
2023/03/14 08:37:41;;;;;;;1999.90;999.90;;;;;;;;;;5074876;28;20044;-86
2023/03/14 08:40:09;;;;;;;1999.90;767.85;;;9.80;99.90;;;;;;5091209;28;20393;-88
2023/03/14 08:42:36;;;;;;;1999.90;999.90;;;8.80;99.90;;;;;;5057308;28;20122;-88
2023/03/14 08:45:02;;;;;;;1999.90;999.90;;;;;;;;;;5071589;28;20131;-86
2023/03/14 08:47:28;;;;;;;1999.90;999.90;;;8.80;99.90;;;;;;5038415;28;20040;-88
2023/03/14 08:49:54;;;;;;;1999.90;999.90;;;9.00;99.90;;;;;;5060040;28;20113;-89
2023/03/14 08:52:19;;;;;;;1999.90;999.90;;;10.80;99.90;;;;;;5092763;28;20127;-88
2023/03/14 08:54:46;;;;;;;1999.90;614.30;;;;;;;;;;5052503;28;20048;-89
2023/03/14 08:57:11;;;;;;;1999.90;999.90;;;10.30;99.90;;;;;;5072568;28;20044;-88
2023/03/14 08:59:37;;;;;;;1999.90;999.90;;;11.70;99.90;;;;;;5072539;28;20041;-88
2023/03/14 09:02:04;;;;;;;1999.90;999.90;;;10.90;99.90;;;;;;5054769;28;20106;-88
2023/03/14 09:04:31;;;;;;;1860.22;782.10;;;13.80;99.90;;;;;;5054490;28;20053;-88
2023/03/14 09:06:57;;;;;;;1999.90;999.90;;;10.60;99.90;;;;;;5054848;28;20045;-88
2023/03/14 09:09:26;;;;;;;1999.90;999.90;;;10.90;99.90;;;;;;5053965;28;20056;-88
2023/03/14 09:11:51;;;;;;;1719.55;567.78;;;10.90;99.90;;;;;;5072636;28;20051;-88
2023/03/14 09:14:17;;;;;;;1999.90;999.90;;;10.70;99.90;;;;;;5055155;28;20048;-88
2023/03/14 09:16:43;;;;;;;1999.90;999.90;;;8.40;99.90;;;;;;5058012;28;20126;-88
2023/03/14 09:19:09;;;;;;;1412.00;125.30;;;11.70;99.90;;;;;;5074402;28;20048;-89
2023/03/14 09:21:34;;;;;;;1999.90;999.90;;;10.80;99.90;;;;;;5092105;28;20401;-88
2023/03/14 09:24:00;;;;;;;1999.90;999.90;;;;;;;;;;5073866;28;20044;-88
2023/03/14 09:26:26;;;;;;;1999.90;999.90;;;;;;;;;;5072153;28;20050;-88
2023/03/14 09:28:52;;;;;;;1999.90;999.90;;;;;;;;;;5071769;28;20144;-88
2023/03/14 09:31:18;;;;;;;1999.90;999.90;;;10.50;99.90;;;;;;5037784;28;20072;-89
2023/03/14 09:33:44;;;;;;;1999.90;999.90;;;;;;;;;;5071767;28;20566;-88
2023/03/14 09:36:10;;;;;;;1999.90;999.90;;;10.70;99.90;;;;;;5082072;28;20040;-87
2023/03/14 09:38:36;;;;;;;1999.90;801.63;;;10.80;99.90;;;;;;5091461;28;20443;-89
2023/03/14 09:41:14;;;;;;;1874.88;783.72;;;11.30;99.90;;;;;;5074209;28;20055;-89
2023/03/14 09:43:42;;;;;;;1999.90;999.90;;;11.70;99.90;;;;;;5074068;28;20048;-89
2023/03/14 09:46:10;;;;;;;1999.90;999.90;;;9.60;99.90;;;;;;5065768;28;20068;-89
2023/03/14 09:48:35;;;;;;;1999.90;999.90;;;12.10;99.90;;;;;;5073477;28;20048;-90
2023/03/14 09:51:06;;;;;;;1999.90;999.90;;;10.80;99.90;;;;;;5055425;28;20499;-89
2023/03/14 09:53:44;;;;;;;1999.90;999.90;;;11.70;99.90;;;;;;5090409;28;20123;-93
2023/03/14 09:56:31;;;;;;;1999.90;626.30;;;10.60;99.90;;;;;;5091640;28;20040;-88
2023/03/14 09:59:05;;;;;;;1999.90;643.70;;;10.60;99.90;;;;;;5091945;28;20051;-88
2023/03/14 10:01:33;;;;;;;1999.90;999.90;;;13.40;99.90;;;;;;5074323;28;20436;-89
2023/03/14 10:04:09;;;;;;;;;;;10.60;99.90;;;;;;5083500;28;20086;-88
2023/03/14 10:06:35;;;;;;;1999.90;950.08;;;11.30;99.90;;;;;;5070253;28;19927;-89
2023/03/14 10:09:02;;;;;;;1999.90;817.20;;;14.50;99.90;;;;;;5071131;28;20131;-88
2023/03/14 10:11:27;;;;;;;1999.90;829.35;;;11.90;99.90;;;;;;5053882;28;20056;-89
2023/03/14 10:14:08;;;;;;;1999.90;575.60;;;12.30;99.90;;;;;;5073947;28;20044;-88
2023/03/14 10:16:37;;;;;;;1999.90;778.58;;;12.90;99.90;;;;;;5074203;28;20040;-85
2023/03/14 10:19:06;;;;;;;1999.90;380.40;;;11.30;99.90;;;;;;5095516;28;20101;-86
2023/03/14 10:21:40;;;;;;;1999.90;593.90;;;12.00;99.90;;;;;;5061520;28;20063;-85
2023/03/14 10:24:15;;;;;;;1999.90;824.85;;;9.10;99.90;;;;;;5091915;28;20106;-85
2023/03/14 10:26:41;;;;;;;1999.90;999.90;;;11.70;99.90;;;;;;5092340;28;20476;-86
2023/03/14 10:29:13;;;;;;;1999.90;517.15;;;10.30;99.90;;;;;;5075266;28;20048;-85
2023/03/14 10:32:00;;;;;;;1999.90;794.17;;;9.60;99.90;;;;;;5073027;28;20060;-85
2023/03/14 10:34:37;;;;;;;1999.90;999.90;;;10.90;99.90;;;;;;5075072;28;20045;-84
2023/03/14 10:37:25;;;;;;;1999.90;467.85;;;9.30;99.90;;;;;;5088514;28;20048;-90
2023/03/14 10:39:54;;;;;;;1999.90;519.92;;;10.80;99.90;;;;;;5094078;28;20054;-89
2023/03/14 10:42:31;;;;;;;1999.90;510.30;;;11.00;99.90;;;;;;5073763;28;20130;-88
2023/03/14 10:45:07;;;;;;;1999.90;299.30;;;11.80;99.90;;;;;;5074309;28;20500;-88
2023/03/14 10:47:34;;;;;;;1999.90;332.80;;;10.70;99.90;;;;;;5057191;28;20056;-89
2023/03/14 10:50:24;;;;;;;1999.90;880.20;;;10.40;99.90;;;;;;5073426;28;20052;-88
2023/03/14 10:52:53;;;;;;;1999.90;944.72;;;12.80;99.90;;;;;;5076953;28;20040;-89
2023/03/14 10:55:19;;;;;;;1999.90;991.35;;;;;;;;;;5075869;28;20052;-88
2023/03/14 10:57:45;;;;;;;1999.90;999.90;;;11.90;99.90;;;;;;5058757;28;20052;-88
2023/03/14 11:00:19;;;;;;;1999.90;880.97;;;10.80;99.90;;;;;;5077031;28;20480;-88
2023/03/14 11:03:03;;;;;;;1999.90;946.72;;;13.40;99.90;;;;;;5058101;28;20051;-87
2023/03/14 11:06:18;;;;;;;1999.90;999.90;;;11.20;99.90;;;;;;5074667;28;20389;-87
2023/03/14 11:09:04;;;;;;;1999.90;700.40;;;16.20;99.90;;;;;;5029789;28;20099;-86
2023/03/14 11:11:30;;;;;;;1999.90;908.85;;;;;;;;;;5074342;28;20370;-86
2023/03/14 11:14:11;;;;;;;1999.90;656.25;;;13.70;99.90;;;;;;5055892;28;20412;-87
2023/03/14 11:17:19;;;;;;;1999.90;353.60;;;12.80;99.90;;;;;;5074735;28;20050;-87
2023/03/14 11:20:12;;;;;;;1999.90;357.00;;;12.20;99.90;;;;;;5059543;28;20421;-86
2023/03/14 11:22:54;;;;;;;1999.90;726.60;;;10.90;99.90;;;;;;5074470;28;20055;-86
2023/03/14 11:25:38;;;;;;;1999.90;490.70;;;10.60;99.90;;;;;;5088486;28;20088;-87
2023/03/14 11:28:26;;;;;;;1828.70;331.35;;;11.90;99.90;;;;;;5088048;28;20074;-85
2023/03/14 11:30:55;;;;;;;1999.90;314.27;;;14.10;99.90;;;;;;5091973;28;20143;-85
2023/03/14 11:33:37;;;;;;;1999.90;351.70;;;14.30;99.90;;;;;;5094237;28;20044;-84
2023/03/14 11:36:11;;;;;;;934.42;162.07;;;13.00;99.90;;;;;;5093985;28;20044;-86
2023/03/14 11:38:49;;;;;;;1968.15;294.77;;;13.20;99.90;;;;;;5075815;28;20036;-86
2023/03/14 11:41:35;;;;;;;1999.90;671.75;;;12.80;99.90;;;;;;5092238;28;20043;-85
2023/03/14 11:44:07;;;;;;;1803.97;254.77;;;12.40;99.90;;;;;;5074197;28;20062;-84
2023/03/14 11:46:43;;;;;;;1423.47;384.33;;;11.60;99.90;;;;;;5076441;28;20044;-84
2023/03/14 11:49:27;;;;;;;1686.00;301.67;;;11.40;99.90;;;;;;5075914;28;20044;-86
2023/03/14 11:51:59;;;;;;;1999.90;987.63;;;13.10;99.90;;;;;;5091923;28;20484;-85
2023/03/14 11:54:58;;;;;;;1999.90;999.90;;;12.70;99.90;;;;;;5093000;28;20040;-85
2023/03/14 11:57:24;;;;;;;1999.90;999.90;;;14.10;99.90;;;;;;5094087;28;20052;-86
2023/03/14 12:00:12;;;;;;;1999.90;999.90;;;15.50;99.90;;;;;;5075533;28;20148;-85
2023/03/14 12:03:02;;;;;;;1999.90;999.90;;;15.40;99.90;;;;;;5055600;28;20052;-84
2023/03/14 12:05:42;;;;;;;1999.90;999.90;;;15.20;99.90;;;;;;5008985;28;20141;-84
2023/03/14 12:08:08;;;;;;;1999.90;999.90;;;14.60;99.90;;;;;;5073587;28;20098;-85
2023/03/14 12:10:46;;;;;;;1999.90;999.90;;;14.20;99.90;;;;;;5056017;28;20136;-84
2023/03/14 12:13:14;;;;;;;1999.90;999.90;;;14.30;99.90;;;;;;5058945;28;20452;-84
2023/03/14 12:16:00;;;;;;;1999.90;999.90;;;14.00;99.90;;;;;;5075736;28;20485;-85